createdAt,value
2023-04-04T00:00:57.408Z,15.32
2023-04-04T00:03:25.748Z,9.18
2023-04-04T00:05:54.249Z,5.95
2023-04-04T00:08:23.090Z,10.50
2023-04-04T00:10:51.848Z,14.32
2023-04-04T00:13:20.044Z,8.75
2023-04-04T00:15:50.604Z,6.55
2023-04-04T00:18:20.208Z,10.80
2023-04-04T00:20:48.368Z,6.43
2023-04-04T00:23:16.933Z,5.97
2023-04-04T00:25:50.391Z,5.50
2023-04-04T00:28:19.015Z,8.07
2023-04-04T00:30:47.691Z,6.65
2023-04-04T00:33:16.778Z,8.25
2023-04-04T00:35:46.625Z,7.72
2023-04-04T00:38:14.889Z,6.85
2023-04-04T00:40:44.923Z,4.72
2023-04-04T00:43:13.504Z,10.43
2023-04-04T00:45:42.255Z,7.97
2023-04-04T00:48:10.744Z,7.18
2023-04-04T00:50:39.274Z,6.20
2023-04-04T00:53:09.389Z,7.40
2023-04-04T00:55:39.558Z,6.53
2023-04-04T00:58:09.074Z,6.45
2023-04-04T01:00:38.390Z,6.53
2023-04-04T01:03:10.281Z,8.10
2023-04-04T01:05:38.674Z,10.10
2023-04-04T01:08:08.852Z,6.28
2023-04-04T01:10:37.260Z,9.85
2023-04-04T01:13:06.001Z,7.65
2023-04-04T01:15:34.388Z,8.30
2023-04-04T01:18:05.083Z,9.18
2023-04-04T01:20:38.230Z,8.02
2023-04-04T01:23:09.037Z,13.20
2023-04-04T01:25:38.977Z,10.27
2023-04-04T01:28:07.443Z,28.35
2023-04-04T01:30:38.854Z,31.17
2023-04-04T01:33:16.529Z,23.73
2023-04-04T01:35:53.745Z,20.35
2023-04-04T01:38:28.563Z,14.65
2023-04-04T01:41:08.981Z,17.60
2023-04-04T01:43:37.555Z,14.25
2023-04-04T01:46:07.108Z,10.18
2023-04-04T01:48:35.625Z,10.80
2023-04-04T01:51:04.010Z,8.40
2023-04-04T01:53:32.667Z,8.20
2023-04-04T01:56:02.615Z,10.50
2023-04-04T01:58:30.981Z,12.10
2023-04-04T02:00:59.206Z,9.70
2023-04-04T02:03:27.792Z,10.45
2023-04-04T02:05:56.076Z,14.48
2023-04-04T02:08:24.428Z,8.45
2023-04-04T02:10:52.673Z,11.98
2023-04-04T02:13:23.262Z,7.82
2023-04-04T02:15:52.777Z,12.48
2023-04-04T02:18:21.199Z,9.30
2023-04-04T02:20:57.745Z,8.80
2023-04-04T02:23:26.292Z,12.85
2023-04-04T02:25:54.719Z,14.07
2023-04-04T02:28:24.468Z,8.68
2023-04-04T02:30:52.762Z,9.25
2023-04-04T02:33:21.040Z,11.40
2023-04-04T02:35:50.745Z,11.00
2023-04-04T02:38:19.107Z,14.68
2023-04-04T02:40:47.599Z,8.18
2023-04-04T02:43:16.184Z,9.95
2023-04-04T02:45:45.993Z,12.55
2023-04-04T02:48:14.261Z,9.95
2023-04-04T02:50:42.993Z,13.07
2023-04-04T02:53:11.486Z,8.43
2023-04-04T02:55:39.840Z,12.80
2023-04-04T02:58:08.145Z,9.18
2023-04-04T03:00:36.421Z,11.95
2023-04-04T03:03:06.445Z,9.65
2023-04-04T03:05:34.942Z,10.45
2023-04-04T03:08:04.800Z,10.80
2023-04-04T03:10:33.146Z,12.52
2023-04-04T03:13:01.587Z,9.43
2023-04-04T03:15:30.550Z,9.65
2023-04-04T03:17:59.033Z,11.95
2023-04-04T03:20:28.816Z,15.05
2023-04-04T03:22:57.806Z,13.57
2023-04-04T03:25:26.231Z,12.25
2023-04-04T03:27:54.608Z,10.10
2023-04-04T03:30:23.175Z,13.60
2023-04-04T03:32:52.474Z,16.40
2023-04-04T03:35:21.168Z,12.73
2023-04-04T03:37:51.118Z,12.60
2023-04-04T03:40:19.532Z,12.43
2023-04-04T03:42:47.979Z,11.90
2023-04-04T03:45:16.752Z,12.43
2023-04-04T03:47:45.099Z,10.10
2023-04-04T03:50:13.615Z,14.15
2023-04-04T03:52:42.277Z,18.23
2023-04-04T03:55:12.560Z,15.40
2023-04-04T03:57:41.252Z,13.60
2023-04-04T04:00:33.605Z,16.83
2023-04-04T04:03:02.233Z,15.38
2023-04-04T04:05:32.992Z,9.27
2023-04-04T04:08:01.526Z,15.88
2023-04-04T04:10:32.389Z,12.68
2023-04-04T04:13:01.461Z,14.15
2023-04-04T04:15:29.955Z,13.13
2023-04-04T04:17:58.893Z,11.95
2023-04-04T04:20:29.468Z,17.15
2023-04-04T04:22:58.516Z,17.67
2023-04-04T04:25:27.529Z,12.95
2023-04-04T04:27:59.149Z,18.55
2023-04-04T04:30:28.216Z,11.30
2023-04-04T04:32:57.659Z,12.38
2023-04-04T04:35:27.273Z,15.07
2023-04-04T04:37:58.624Z,14.23
2023-04-04T04:40:27.649Z,18.23
2023-04-04T04:42:58.316Z,12.57
2023-04-04T04:45:27.791Z,18.08
2023-04-04T04:47:56.948Z,14.23
2023-04-04T04:50:26.285Z,12.70
2023-04-04T04:52:54.737Z,12.32
2023-04-04T04:55:23.551Z,16.60
2023-04-04T04:57:52.849Z,15.73
2023-04-04T05:00:26.286Z,14.73
2023-04-04T05:02:57.005Z,19.67
2023-04-04T05:05:25.584Z,15.35
2023-04-04T05:07:54.519Z,18.15
2023-04-04T05:10:25.651Z,16.20
2023-04-04T05:12:56.290Z,19.48
2023-04-04T05:15:29.396Z,21.33
2023-04-04T05:17:58.564Z,16.98
2023-04-04T05:20:27.491Z,17.17
2023-04-04T05:22:56.402Z,20.60
2023-04-04T05:25:25.044Z,21.38
2023-04-04T05:27:58.675Z,17.95
2023-04-04T05:30:29.028Z,18.30
2023-04-04T05:32:57.724Z,17.95
2023-04-04T05:35:26.620Z,16.65
2023-04-04T05:37:55.827Z,19.77
2023-04-04T05:40:24.171Z,26.38
2023-04-04T05:42:57.322Z,28.38
2023-04-04T05:45:27.980Z,26.60
2023-04-04T05:47:59.285Z,28.73
2023-04-04T05:50:27.702Z,22.63
2023-04-04T05:52:59.672Z,19.83
2023-04-04T05:55:28.451Z,20.88
2023-04-04T05:58:00.498Z,24.50
2023-04-04T06:00:31.091Z,19.55
2023-04-04T06:02:59.796Z,19.77
2023-04-04T06:05:28.307Z,20.02
2023-04-04T06:07:59.371Z,24.48
2023-04-04T06:10:28.747Z,20.52
2023-04-04T06:12:57.334Z,21.30
2023-04-04T06:15:26.164Z,23.30
2023-04-04T06:17:56.312Z,20.20
2023-04-04T06:20:25.028Z,17.88
2023-04-04T06:22:54.294Z,17.40
2023-04-04T06:25:22.980Z,19.27
2023-04-04T06:27:51.554Z,21.33
2023-04-04T06:30:20.920Z,21.80
2023-04-04T06:32:49.818Z,18.88
2023-04-04T06:35:20.410Z,18.90
2023-04-04T06:37:49.409Z,12.82
2023-04-04T06:40:17.946Z,13.85
2023-04-04T06:42:52.414Z,10.98
2023-04-04T06:45:25.121Z,17.42
2023-04-04T06:47:54.980Z,12.93
2023-04-04T06:50:26.012Z,18.83
2023-04-04T06:52:55.862Z,16.23
2023-04-04T06:55:24.776Z,13.85
2023-04-04T06:57:54.624Z,9.77
2023-04-04T07:00:23.827Z,18.10
2023-04-04T07:02:59.589Z,15.43
2023-04-04T07:05:31.068Z,11.90
2023-04-04T07:07:59.869Z,10.20
2023-04-04T07:10:28.772Z,10.63
2023-04-04T07:12:57.797Z,11.77
2023-04-04T07:15:26.534Z,14.98
2023-04-04T07:17:59.682Z,13.07
2023-04-04T07:20:32.778Z,11.05
2023-04-04T07:23:01.493Z,8.88
2023-04-04T07:25:31.419Z,12.02
2023-04-04T07:28:11.699Z,11.80
2023-04-04T07:30:43.429Z,13.00
2023-04-04T07:33:12.791Z,8.00
2023-04-04T07:35:45.030Z,10.95
2023-04-04T07:38:23.343Z,8.90
2023-04-04T07:43:22.344Z,10.98
2023-04-04T07:45:52.418Z,9.15
2023-04-04T07:48:22.997Z,9.93
2023-04-04T07:50:54.150Z,8.55
2023-04-04T07:53:23.818Z,8.07
2023-04-04T07:55:52.394Z,10.20
2023-04-04T07:58:22.440Z,10.80
2023-04-04T08:00:54.094Z,8.27
2023-04-04T08:03:24.336Z,8.65
2023-04-04T08:05:54.530Z,9.15
2023-04-04T08:08:23.232Z,9.05
2023-04-04T08:10:52.235Z,8.05
2023-04-04T08:13:21.288Z,10.75
2023-04-04T08:15:52.075Z,9.90
2023-04-04T08:18:20.808Z,10.05
2023-04-04T08:20:49.765Z,8.48
2023-04-04T08:23:26.790Z,8.23
2023-04-04T08:25:55.606Z,6.60
2023-04-04T08:28:24.462Z,7.38
2023-04-04T08:30:55.222Z,7.70
2023-04-04T08:33:29.227Z,11.55
2023-04-04T08:36:07.135Z,9.27
2023-04-04T08:38:39.446Z,8.10
2023-04-04T08:41:12.206Z,7.82
2023-04-04T08:43:42.299Z,9.10
2023-04-04T08:46:12.944Z,4.57
2023-04-04T08:48:43.471Z,9.25
2023-04-04T08:51:16.747Z,7.07
2023-04-04T08:53:52.369Z,6.85
2023-04-04T08:56:21.954Z,5.18
2023-04-04T08:58:50.870Z,5.90
2023-04-04T09:01:19.960Z,6.47
2023-04-04T09:03:53.041Z,7.88
2023-04-04T09:06:31.137Z,5.68
2023-04-04T09:09:02.612Z,5.28
2023-04-04T09:11:34.957Z,7.15
2023-04-04T09:14:08.457Z,5.00
2023-04-04T09:16:37.689Z,5.80
2023-04-04T09:19:10.157Z,7.70
2023-04-04T09:21:40.068Z,8.02
2023-04-04T09:24:14.958Z,7.70
2023-04-04T09:26:51.713Z,10.63
2023-04-04T09:29:21.387Z,5.70
2023-04-04T09:31:51.639Z,7.60
2023-04-04T09:34:23.667Z,5.05
2023-04-04T09:36:54.953Z,5.90
2023-04-04T09:39:25.494Z,9.35
2023-04-04T09:41:56.018Z,6.10
2023-04-04T09:44:31.803Z,11.05
2023-04-04T09:47:31.272Z,9.73
2023-04-04T09:50:02.114Z,10.00
2023-04-04T09:52:39.191Z,9.45
2023-04-04T09:55:10.863Z,5.65
2023-04-04T09:57:41.170Z,6.95
2023-04-04T10:00:22.042Z,5.03
2023-04-04T10:02:53.336Z,5.03
2023-04-04T10:05:23.319Z,9.00
2023-04-04T10:08:00.206Z,6.68
2023-04-04T10:10:33.087Z,11.73
2023-04-04T10:13:04.006Z,6.40
2023-04-04T10:15:38.373Z,5.60
2023-04-04T10:18:10.121Z,8.20
2023-04-04T10:20:39.473Z,7.00
2023-04-04T10:23:08.122Z,11.88
2023-04-04T10:25:39.046Z,6.72
2023-04-04T10:28:08.665Z,10.05
2023-04-04T10:30:59.374Z,7.68
2023-04-04T10:33:46.140Z,8.43
2023-04-04T10:36:23.835Z,10.45
2023-04-04T10:41:36.164Z,11.10
2023-04-04T10:44:19.997Z,7.60
2023-04-04T10:46:52.231Z,8.85
2023-04-04T10:49:21.870Z,4.10
2023-04-04T10:51:56.295Z,8.65
2023-04-04T10:54:27.709Z,9.18
2023-04-04T10:57:02.418Z,7.72
2023-04-04T10:59:34.253Z,6.60
2023-04-04T11:02:06.849Z,7.00
2023-04-04T11:04:42.701Z,7.78
2023-04-04T11:07:20.708Z,8.35
2023-04-04T11:09:58.130Z,7.82
2023-04-04T11:12:36.477Z,6.95
2023-04-04T11:15:11.205Z,5.93
2023-04-04T11:18:08.118Z,6.10
2023-04-04T11:20:46.499Z,9.68
2023-04-04T11:23:23.551Z,8.60
2023-04-04T11:25:54.064Z,6.97
2023-04-04T11:28:46.451Z,6.57
2023-04-04T11:31:34.987Z,5.43
2023-04-04T11:34:07.164Z,6.38
2023-04-04T11:36:54.208Z,9.60
2023-04-04T11:39:31.215Z,7.57
2023-04-04T11:42:08.464Z,7.47
2023-04-04T11:45:03.373Z,7.50
2023-04-04T11:47:32.461Z,8.95
2023-04-04T11:50:03.508Z,8.70
2023-04-04T11:52:36.290Z,8.40
2023-04-04T11:55:15.526Z,7.63
2023-04-04T11:57:44.523Z,7.60
2023-04-04T12:00:30.615Z,8.23
2023-04-04T12:03:00.697Z,6.35
2023-04-04T12:05:30.892Z,6.40
2023-04-04T12:08:01.924Z,8.15
2023-04-04T12:10:33.126Z,6.75
2023-04-04T12:13:13.356Z,5.95
2023-04-04T12:15:45.106Z,8.73
2023-04-04T12:18:23.417Z,7.47
2023-04-04T12:20:53.253Z,6.93
2023-04-04T12:23:21.779Z,7.78
2023-04-04T12:25:54.932Z,8.18
2023-04-04T12:28:25.311Z,7.53
2023-04-04T12:30:57.782Z,9.18
2023-04-04T12:33:29.543Z,15.63
2023-04-04T12:35:58.007Z,11.32
2023-04-04T12:38:30.578Z,7.07
2023-04-04T12:40:59.602Z,8.48
2023-04-04T12:43:31.510Z,7.20
2023-04-04T12:46:01.505Z,8.93
2023-04-04T12:48:31.691Z,7.82
2023-04-04T12:51:01.699Z,7.03
2023-04-04T12:53:35.478Z,8.13
2023-04-04T12:56:06.622Z,7.85
2023-04-04T12:58:37.539Z,5.95
2023-04-04T13:01:08.486Z,8.02
2023-04-04T13:03:38.205Z,7.75
2023-04-04T13:06:14.547Z,8.48
2023-04-04T13:08:52.369Z,8.02
2023-04-04T13:11:21.751Z,6.88
2023-04-04T13:14:01.080Z,8.13
2023-04-04T13:16:37.152Z,9.45
2023-04-04T13:19:06.332Z,10.35
2023-04-04T13:21:37.476Z,7.50
2023-04-04T13:24:10.586Z,6.75
2023-04-04T13:26:40.424Z,7.65
2023-04-04T13:29:09.148Z,7.60
2023-04-04T13:31:39.906Z,9.50
2023-04-04T13:34:08.728Z,9.65
2023-04-04T13:36:37.238Z,8.88
2023-04-04T13:39:06.057Z,7.93
2023-04-04T13:41:34.611Z,12.15
2023-04-04T13:44:03.081Z,7.50
2023-04-04T13:46:31.922Z,7.05
2023-04-04T13:49:03.782Z,7.07
2023-04-04T13:51:32.393Z,6.97
2023-04-04T13:54:00.850Z,13.48
2023-04-04T13:56:29.164Z,7.60
2023-04-04T13:59:06.074Z,9.25
2023-04-04T14:01:34.718Z,10.77
2023-04-04T14:04:13.224Z,8.18
2023-04-04T14:09:17.978Z,8.23
2023-04-04T14:11:48.937Z,11.30
2023-04-04T14:14:17.720Z,6.72
2023-04-04T14:16:46.157Z,9.88
2023-04-04T14:19:21.689Z,6.25
2023-04-04T14:24:18.864Z,10.75
2023-04-04T14:26:59.164Z,11.23
2023-04-04T14:29:36.445Z,7.72
2023-04-04T14:32:04.976Z,10.27
2023-04-04T14:34:34.690Z,7.68
2023-04-04T14:37:03.238Z,7.57
2023-04-04T14:39:39.941Z,12.15
2023-04-04T14:42:09.118Z,14.23
2023-04-04T14:44:37.473Z,10.95
2023-04-04T14:47:06.078Z,7.88
2023-04-04T14:49:36.046Z,10.13
2023-04-04T14:52:05.340Z,12.10
2023-04-04T14:54:33.818Z,10.48
2023-04-04T14:57:03.521Z,8.45
2023-04-04T14:59:33.034Z,6.72
2023-04-04T15:02:01.651Z,9.57
2023-04-04T15:04:30.305Z,10.35
2023-04-04T15:07:03.165Z,6.93
2023-04-04T15:09:31.994Z,9.82
2023-04-04T15:12:01.946Z,9.57
2023-04-04T15:14:30.944Z,14.15
2023-04-04T15:16:59.400Z,11.73
2023-04-04T15:19:27.811Z,9.80
2023-04-04T15:21:57.376Z,11.52
2023-04-04T15:24:30.859Z,9.73
2023-04-04T15:26:59.442Z,11.98
2023-04-04T15:29:28.421Z,14.23
2023-04-04T15:31:56.807Z,9.93
2023-04-04T15:34:25.662Z,9.35
2023-04-04T15:36:54.450Z,8.55
2023-04-04T15:39:22.795Z,13.02
2023-04-04T15:41:52.553Z,12.77
2023-04-04T15:44:21.013Z,12.05
2023-04-04T15:46:49.565Z,12.38
2023-04-04T15:49:18.481Z,10.80
2023-04-04T15:51:47.218Z,9.25
2023-04-04T15:54:15.569Z,10.95
2023-04-04T15:56:43.926Z,9.38
2023-04-04T15:59:13.749Z,12.60
2023-04-04T16:01:42.599Z,11.68
2023-04-04T16:04:11.073Z,10.70
2023-04-04T16:06:39.554Z,9.65
2023-04-04T16:09:07.828Z,11.68
2023-04-04T16:11:36.622Z,13.63
2023-04-04T16:14:09.823Z,9.05
2023-04-04T16:16:42.591Z,10.18
2023-04-04T16:19:16.490Z,14.68
2023-04-04T16:21:44.961Z,10.48
2023-04-04T16:24:14.369Z,10.98
2023-04-04T16:26:47.453Z,11.73
2023-04-04T16:29:18.536Z,12.38
2023-04-04T16:31:50.146Z,10.63
2023-04-04T16:34:34.179Z,10.82
2023-04-04T16:37:04.696Z,10.50
2023-04-04T16:39:33.068Z,11.85
2023-04-04T16:42:02.412Z,11.43
2023-04-04T16:44:30.858Z,10.55
2023-04-04T16:47:02.003Z,9.80
2023-04-04T16:49:31.436Z,10.90
2023-04-04T16:51:59.857Z,9.13
2023-04-04T16:54:28.206Z,14.35
2023-04-04T16:56:57.921Z,9.48
2023-04-04T16:59:26.560Z,12.82
2023-04-04T17:01:55.380Z,10.40
2023-04-04T17:04:25.335Z,9.43
2023-04-04T17:06:56.849Z,12.52
2023-04-04T17:09:26.568Z,7.55
2023-04-04T17:11:58.357Z,15.13
2023-04-04T17:14:28.749Z,9.50
2023-04-04T17:19:47.322Z,12.98
2023-04-04T17:22:18.152Z,12.55
2023-04-04T17:24:47.846Z,18.70
2023-04-04T17:27:16.547Z,14.65
2023-04-04T17:29:45.734Z,10.38
2023-04-04T17:32:14.342Z,10.15
2023-04-04T17:34:42.904Z,9.98
2023-04-04T17:37:13.399Z,13.75
2023-04-04T17:39:44.186Z,13.00
2023-04-04T17:42:13.744Z,12.27
2023-04-04T17:44:42.144Z,13.60
2023-04-04T17:47:12.505Z,11.82
2023-04-04T17:49:41.283Z,14.07
2023-04-04T17:52:10.607Z,12.98
2023-04-04T17:54:40.694Z,11.23
2023-04-04T17:57:09.011Z,13.98
2023-04-04T17:59:37.520Z,11.15
2023-04-04T18:02:06.673Z,13.90
2023-04-04T18:04:35.130Z,10.48
2023-04-04T18:07:03.406Z,12.40
2023-04-04T18:09:32.020Z,13.85
2023-04-04T18:12:03.165Z,16.23
2023-04-04T18:14:32.267Z,14.55
2023-04-04T18:17:04.254Z,13.30
2023-04-04T18:19:35.055Z,13.23
2023-04-04T18:22:04.240Z,10.02
2023-04-04T18:24:36.731Z,13.27
2023-04-04T18:27:10.440Z,14.75
2023-04-04T18:29:40.482Z,12.00
2023-04-04T18:32:09.185Z,14.27
2023-04-04T18:34:37.517Z,13.40
2023-04-04T18:37:07.965Z,10.07
2023-04-04T18:39:39.307Z,17.02
2023-04-04T18:42:10.646Z,11.73
2023-04-04T18:44:39.334Z,10.60
2023-04-04T18:47:09.258Z,15.52
2023-04-04T18:49:38.310Z,13.02
2023-04-04T18:52:06.820Z,14.30
2023-04-04T18:54:35.419Z,14.45
2023-04-04T18:57:04.317Z,14.02
2023-04-04T18:59:34.297Z,18.23
2023-04-04T19:02:02.576Z,17.13
2023-04-04T19:04:33.000Z,14.27
2023-04-04T19:07:05.929Z,17.90
2023-04-04T19:09:35.885Z,18.80
2023-04-04T19:12:04.397Z,14.90
2023-04-04T19:14:35.377Z,15.70
2023-04-04T19:17:07.214Z,15.35
2023-04-04T19:19:36.092Z,20.00
2023-04-04T19:22:05.325Z,14.43
2023-04-04T19:24:33.562Z,13.73
2023-04-04T19:27:03.167Z,19.65
2023-04-04T19:29:35.856Z,17.63
2023-04-04T19:32:15.881Z,15.88
2023-04-04T19:34:44.898Z,13.80
2023-04-04T19:37:17.592Z,14.38
2023-04-04T19:39:46.411Z,15.40
2023-04-04T19:42:15.773Z,13.95
2023-04-04T19:44:45.870Z,15.70
2023-04-04T19:47:19.924Z,11.85
2023-04-04T19:49:51.519Z,12.52
2023-04-04T19:52:25.167Z,14.20
2023-04-04T19:54:53.536Z,14.18
2023-04-04T19:57:23.352Z,12.65
2023-04-04T20:00:10.477Z,10.60
2023-04-04T20:03:08.022Z,12.55
2023-04-04T20:06:07.602Z,11.88
2023-04-04T20:08:41.183Z,15.70
2023-04-04T20:11:09.523Z,13.45
2023-04-04T20:13:39.622Z,10.77
2023-04-04T20:16:11.969Z,12.43
2023-04-04T20:18:43.035Z,14.05
2023-04-04T20:21:15.008Z,12.57
2023-04-04T20:23:53.102Z,13.70
2023-04-04T20:26:51.308Z,9.65
2023-04-04T20:29:22.927Z,11.30
2023-04-04T20:31:55.440Z,12.30
2023-04-04T20:34:45.541Z,17.35
2023-04-04T20:37:16.230Z,14.15
2023-04-04T20:39:50.071Z,12.13
2023-04-04T20:42:40.418Z,11.63
2023-04-04T20:45:44.822Z,11.73
2023-04-04T20:48:40.208Z,10.45
2023-04-04T20:51:30.245Z,11.37
2023-04-04T20:54:00.635Z,9.85
2023-04-04T20:56:52.497Z,9.63
2023-04-04T20:59:43.726Z,12.70
2023-04-04T21:02:19.830Z,8.90
2023-04-04T21:04:52.022Z,13.40
2023-04-04T21:07:40.520Z,12.32
2023-04-04T21:10:25.827Z,13.57
2023-04-04T21:12:54.500Z,11.80
2023-04-04T21:15:28.475Z,13.27
2023-04-04T21:17:59.307Z,10.48
2023-04-04T21:21:18.594Z,10.93
2023-04-04T21:23:52.695Z,10.23
2023-04-04T21:26:33.416Z,12.38
2023-04-04T21:29:04.835Z,13.07
2023-04-04T21:31:39.412Z,11.18
2023-04-04T21:34:17.386Z,12.25
2023-04-04T21:36:48.256Z,13.88
2023-04-04T21:39:22.850Z,10.15
2023-04-04T21:41:53.804Z,9.90
2023-04-04T21:44:21.911Z,11.15
2023-04-04T21:46:50.387Z,14.07
2023-04-04T21:49:19.260Z,14.13
2023-04-04T21:51:48.933Z,10.75
2023-04-04T21:54:17.369Z,15.65
2023-04-04T21:56:45.748Z,10.27
2023-04-04T21:59:14.322Z,9.85
2023-04-04T22:01:42.595Z,10.77
2023-04-04T22:04:10.916Z,19.45
2023-04-04T22:06:42.470Z,12.38
2023-04-04T22:09:12.108Z,11.70
2023-04-04T22:11:45.353Z,11.73
2023-04-04T22:14:17.378Z,13.73
2023-04-04T22:16:46.370Z,10.63
2023-04-04T22:19:14.755Z,14.15
2023-04-04T22:21:47.140Z,14.90
2023-04-04T22:24:18.013Z,10.35
2023-04-04T22:26:47.046Z,10.48
2023-04-04T22:29:15.572Z,8.93
2023-04-04T22:31:44.159Z,14.63
2023-04-04T22:34:14.769Z,10.45
2023-04-04T22:36:43.845Z,11.77
2023-04-04T22:39:15.933Z,14.63
2023-04-04T22:41:46.166Z,11.65
2023-04-04T22:44:14.490Z,13.00
2023-04-04T22:46:42.961Z,11.27
2023-04-04T22:49:11.219Z,9.40
2023-04-04T22:51:45.772Z,11.57
2023-04-04T22:54:16.020Z,10.75
2023-04-04T22:56:46.431Z,18.27
2023-04-04T22:59:14.935Z,10.40
2023-04-04T23:01:43.619Z,11.70
2023-04-04T23:04:12.186Z,16.08
2023-04-04T23:06:40.578Z,12.10
2023-04-04T23:09:09.477Z,17.00
2023-04-04T23:11:39.269Z,13.32
2023-04-04T23:14:09.973Z,16.98
2023-04-04T23:16:38.353Z,12.35
2023-04-04T23:19:06.711Z,13.20
2023-04-04T23:21:35.243Z,13.23
2023-04-04T23:24:04.004Z,16.08
2023-04-04T23:26:32.636Z,16.55
2023-04-04T23:29:01.406Z,14.10
2023-04-04T23:31:31.233Z,14.65
2023-04-04T23:34:00.639Z,19.73
2023-04-04T23:36:29.092Z,13.27
2023-04-04T23:38:57.444Z,11.05
2023-04-04T23:41:26.364Z,12.07
2023-04-04T23:43:54.597Z,12.98
2023-04-04T23:46:24.038Z,18.13
2023-04-04T23:48:53.800Z,15.25
2023-04-04T23:51:22.139Z,14.93
2023-04-04T23:53:50.320Z,14.30
2023-04-04T23:56:18.563Z,16.25
2023-04-04T23:58:47.008Z,15.45
